Time;durP1;ratioP1;P1;durP2;ratioP2;P2;SDS_P1;SDS_P2;PMS_P1;PMS_P2;Temp;Humidity;BMP_temperature;BMP_pressure;BME280_temperature;BME280_humidity;BME280_pressure;Samples;Min_cycle;Max_cycle;Signal;HPM_P1;HPM_P2
2024/01/09 00:03:30;;;;;;;1.53;1.17;;;19.70;44.90;;;;;;8326227;28;20037;-48
2024/01/09 00:07:31;;;;;;;5.82;1.38;;;19.70;44.90;;;;;;8325681;28;20372;-48
2024/01/09 00:11:31;;;;;;;3.78;1.17;;;19.70;44.60;;;;;;8328466;28;20052;-49
2024/01/09 00:15:32;;;;;;;3.13;1.10;;;19.70;44.10;;;;;;8327999;28;20037;-49
2024/01/09 00:19:33;;;;;;;5.53;1.10;;;19.80;43.70;;;;;;8327869;28;20037;-48
2024/01/09 00:23:34;;;;;;;;;;;19.80;43.40;;;;;;8327949;28;20037;-47
2024/01/09 00:27:35;;;;;;;3.67;1.10;;;19.80;43.10;;;;;;8327689;28;20359;-48
2024/01/09 00:31:36;;;;;;;1.48;1.00;;;19.80;42.90;;;;;;8327586;28;20041;-48
2024/01/09 00:35:37;;;;;;;1.35;1.17;;;19.90;42.70;;;;;;8326329;28;20087;-47
2024/01/09 00:39:37;;;;;;;2.63;1.13;;;19.80;42.60;;;;;;8327292;28;20033;-48
2024/01/09 00:43:38;;;;;;;2.80;1.13;;;19.80;42.50;;;;;;8327247;28;20033;-47
2024/01/09 00:47:39;;;;;;;1.63;1.17;;;19.80;42.80;;;;;;8326999;28;20446;-47
2024/01/09 00:51:39;;;;;;;1.10;1.00;;;19.70;43.70;;;;;;8327301;28;20545;-47
2024/01/09 00:55:40;;;;;;;1.10;1.00;;;19.60;43.70;;;;;;8326490;28;20043;-48
2024/01/09 00:59:41;;;;;;;1.65;1.00;;;19.70;43.30;;;;;;8295416;28;20035;-49
2024/01/09 01:03:42;;;;;;;2.35;1.20;;;19.70;42.90;;;;;;8294199;28;20120;-48
2024/01/09 01:07:43;;;;;;;2.47;1.02;;;19.80;42.60;;;;;;8292517;28;20071;-47
2024/01/09 01:11:44;;;;;;;1.65;0.90;;;19.80;42.50;;;;;;8309186;28;20030;-48
2024/01/09 01:15:45;;;;;;;0.95;0.85;;;19.80;42.30;;;;;;8294080;28;20129;-48
2024/01/09 01:19:45;;;;;;;1.25;1.00;;;19.80;42.30;;;;;;8293619;28;20495;-47
2024/01/09 01:23:46;;;;;;;1.10;1.00;;;19.80;42.10;;;;;;8294168;28;20034;-48
2024/01/09 01:27:47;;;;;;;2.42;1.05;;;19.80;42.00;;;;;;8311166;28;20025;-47
2024/01/09 01:31:47;;;;;;;1.58;0.95;;;19.80;41.90;;;;;;8326329;28;20044;-49
2024/01/09 01:35:48;;;;;;;0.88;0.85;;;19.80;42.50;;;;;;8326371;28;20037;-48
2024/01/09 01:39:49;;;;;;;1.10;0.90;;;19.60;43.50;;;;;;8326419;28;20487;-49
2024/01/09 01:43:49;;;;;;;1.20;1.00;;;19.50;43.50;;;;;;8326262;28;20037;-47
2024/01/09 01:47:51;;;;;;;0.95;0.88;;;19.70;43.00;;;;;;8326196;28;20079;-48
2024/01/09 01:51:51;;;;;;;0.85;0.80;;;19.70;42.60;;;;;;8326231;28;20042;-47
2024/01/09 01:55:52;;;;;;;0.80;0.80;;;19.70;42.40;;;;;;8326526;28;20072;-47
2024/01/09 01:59:53;;;;;;;0.98;0.88;;;19.70;42.20;;;;;;8326100;28;20030;-47
2024/01/09 02:03:55;;;;;;;1.00;0.98;;;19.80;42.10;;;;;;8326631;28;20112;-47
2024/01/09 02:07:57;;;;;;;2.00;0.85;;;19.70;41.90;;;;;;8327571;28;20053;-47
2024/01/09 02:11:58;;;;;;;1.10;0.98;;;19.80;41.90;;;;;;8331754;28;20112;-44
2024/01/09 02:15:59;;;;;;;1.00;0.90;;;19.80;41.70;;;;;;8331923;28;20042;-46
2024/01/09 02:20:00;;;;;;;1.10;1.00;;;19.80;41.70;;;;;;8331781;28;20526;-45
2024/01/09 02:24:00;;;;;;;2.25;0.93;;;19.70;42.40;;;;;;8331443;28;20443;-46
2024/01/09 02:28:10;;;;;;;0.90;0.90;;;19.60;43.30;;;;;;8331290;28;20061;-46
2024/01/09 02:32:11;;;;;;;1.40;1.00;;;19.50;43.20;;;;;;8331485;28;20060;-47
2024/01/09 02:36:12;;;;;;;1.00;0.90;;;19.60;42.80;;;;;;8331075;28;20120;-49
2024/01/09 02:40:12;;;;;;;1.00;0.90;;;19.60;42.40;;;;;;8331154;28;20498;-45
2024/01/09 02:44:14;;;;;;;0.80;0.80;;;19.70;42.20;;;;;;8330847;28;20594;-46
2024/01/09 02:48:15;;;;;;;0.85;0.85;;;19.70;42.00;;;;;;8329291;28;20034;-45
2024/01/09 02:52:16;;;;;;;1.48;1.08;;;19.70;41.80;;;;;;8329801;28;20025;-46
2024/01/09 02:56:17;;;;;;;1.00;0.90;;;19.70;41.70;;;;;;8330300;28;20033;-46
2024/01/09 03:00:18;;;;;;;1.10;0.95;;;19.80;41.60;;;;;;8331241;28;20038;-45
2024/01/09 03:04:20;;;;;;;1.13;0.85;;;19.80;41.50;;;;;;8329970;28;20032;-45
2024/01/09 03:08:20;;;;;;;1.13;0.98;;;19.80;41.40;;;;;;8329850;28;20053;-46
2024/01/09 03:12:21;;;;;;;1.30;0.80;;;19.70;42.30;;;;;;8330134;28;20495;-46
2024/01/09 03:16:22;;;;;;;1.00;0.90;;;19.50;43.10;;;;;;8329890;28;20156;-45
2024/01/09 03:20:22;;;;;;;1.17;0.67;;;19.50;42.90;;;;;;8328434;28;20045;-47
2024/01/09 03:24:23;;;;;;;0.80;0.77;;;19.60;42.40;;;;;;8329726;28;20299;-50
2024/01/09 03:28:25;;;;;;;0.85;0.85;;;19.60;42.10;;;;;;8329443;28;20029;-50
2024/01/09 03:32:25;;;;;;;1.80;0.90;;;19.60;41.90;;;;;;8329467;28;20550;-47
2024/01/09 03:36:26;;;;;;;1.95;1.00;;;19.70;41.80;;;;;;8329371;28;20484;-47
2024/01/09 03:40:27;;;;;;;0.90;0.90;;;19.70;41.60;;;;;;8329196;28;20041;-47
2024/01/09 03:44:27;;;;;;;0.80;0.80;;;19.70;41.50;;;;;;8329072;28;20116;-48
2024/01/09 03:48:28;;;;;;;0.77;0.77;;;19.70;41.40;;;;;;8328900;28;20079;-47
2024/01/09 03:52:29;;;;;;;0.88;0.80;;;19.70;41.40;;;;;;8328636;28;20034;-47
2024/01/09 03:56:30;;;;;;;1.00;0.90;;;19.70;41.20;;;;;;8329175;28;20041;-48
2024/01/09 04:00:30;;;;;;;1.17;1.08;;;19.60;42.70;;;;;;8328465;28;20442;-47
2024/01/09 04:04:31;;;;;;;1.45;1.00;;;19.50;43.00;;;;;;8328314;28;20480;-47
2024/01/09 04:08:32;;;;;;;0.90;0.73;;;19.50;42.70;;;;;;8328407;28;20053;-46
2024/01/09 04:12:33;;;;;;;1.53;0.83;;;19.50;42.20;;;;;;8327955;28;20121;-47
2024/01/09 04:16:34;;;;;;;1.77;1.10;;;19.60;41.90;;;;;;8328087;28;20294;-47
2024/01/09 04:20:34;;;;;;;1.20;0.75;;;19.60;41.70;;;;;;8328465;28;20556;-47
2024/01/09 04:24:35;;;;;;;0.85;0.80;;;19.60;41.50;;;;;;8326389;28;20667;-47
2024/01/09 04:28:36;;;;;;;1.08;1.00;;;19.70;41.40;;;;;;8327555;28;20506;-47
2024/01/09 04:32:36;;;;;;;1.10;0.80;;;19.70;41.30;;;;;;8327245;28;20463;-45
2024/01/09 04:36:37;;;;;;;0.90;0.85;;;19.70;41.20;;;;;;8327437;28;20040;-45
2024/01/09 04:40:38;;;;;;;0.90;0.90;;;19.70;41.00;;;;;;8327326;28;20068;-45
2024/01/09 04:44:38;;;;;;;0.88;0.70;;;19.70;41.00;;;;;;8325973;28;20041;-46
2024/01/09 04:48:39;;;;;;;0.60;0.60;;;19.60;41.90;;;;;;8327198;28;20539;-46
2024/01/09 04:52:40;;;;;;;1.05;0.80;;;19.40;42.80;;;;;;8327178;28;20072;-46
2024/01/09 04:56:40;;;;;;;0.93;0.93;;;19.50;42.40;;;;;;8327018;28;20025;-46
2024/01/09 05:00:41;;;;;;;0.70;0.65;;;19.50;42.00;;;;;;8326994;28;20045;-45
2024/01/09 05:04:42;;;;;;;0.80;0.80;;;19.60;41.70;;;;;;8326890;28;20483;-45
2024/01/09 05:08:43;;;;;;;1.00;0.90;;;19.60;41.50;;;;;;8326630;28;20057;-47
2024/01/09 05:12:44;;;;;;;1.08;0.82;;;19.60;41.40;;;;;;8325547;28;20037;-46
2024/01/09 05:16:45;;;;;;;0.80;0.80;;;19.70;41.30;;;;;;8326703;28;20091;-46
2024/01/09 05:20:45;;;;;;;0.73;0.73;;;19.70;41.10;;;;;;8326776;28;20029;-46
2024/01/09 05:24:46;;;;;;;0.82;0.80;;;19.70;41.00;;;;;;8326675;28;20056;-46
2024/01/09 05:28:47;;;;;;;0.80;0.80;;;19.80;40.80;;;;;;8326606;28;20033;-50
2024/01/09 05:32:47;;;;;;;0.85;0.85;;;19.80;40.80;;;;;;8326288;28;20048;-48
2024/01/09 05:36:48;;;;;;;1.48;1.20;;;19.70;41.90;;;;;;8326300;28;20037;-46
2024/01/09 05:40:51;;;;;;;1.63;1.20;;;19.40;42.60;;;;;;8326395;28;20479;-47
2024/01/09 05:44:53;;;;;;;1.10;1.00;;;19.50;42.20;;;;;;8331511;28;20029;-47
2024/01/09 05:48:53;;;;;;;1.38;1.00;;;19.60;41.80;;;;;;8332524;28;20431;-49
2024/01/09 05:52:54;;;;;;;0.82;0.82;;;19.60;41.50;;;;;;8332592;28;20033;-47
2024/01/09 05:56:55;;;;;;;1.30;0.80;;;19.70;41.20;;;;;;8332544;28;20132;-49
2024/01/09 06:00:55;;;;;;;1.25;0.90;;;19.70;41.10;;;;;;8332263;28;20038;-47
2024/01/09 06:04:56;;;;;;;1.30;0.90;;;19.60;40.90;;;;;;8331959;28;20033;-47
2024/01/09 06:08:57;;;;;;;1.17;1.08;;;19.70;40.90;;;;;;8332127;28;20400;-46
2024/01/09 06:12:58;;;;;;;0.77;0.70;;;19.70;40.80;;;;;;8331998;28;20046;-47
2024/01/09 06:16:58;;;;;;;0.95;0.80;;;19.70;40.70;;;;;;8331791;28;20029;-47
2024/01/09 06:20:59;;;;;;;0.80;0.80;;;19.70;40.70;;;;;;8331914;28;20044;-46
2024/01/09 06:25:00;;;;;;;1.10;0.90;;;19.60;41.80;;;;;;8331620;28;20033;-46
2024/01/09 06:29:00;;;;;;;0.77;0.77;;;19.40;42.40;;;;;;8331536;28;20038;-47
2024/01/09 06:33:01;;;;;;;1.00;0.90;;;19.50;42.00;;;;;;8331568;28;20033;-46
2024/01/09 06:37:02;;;;;;;1.05;0.90;;;19.50;41.60;;;;;;8331048;28;20029;-46
2024/01/09 06:41:03;;;;;;;;;;;19.70;41.40;;;;;;8330335;28;20603;-46
2024/01/09 06:45:04;;;;;;;0.67;0.63;;;19.70;41.10;;;;;;8331505;28;20256;-46
2024/01/09 06:49:05;;;;;;;1.05;0.90;;;19.60;40.90;;;;;;8331233;28;20083;-45
2024/01/09 06:53:07;;;;;;;0.65;0.65;;;19.70;40.90;;;;;;8330519;28;20553;-45
2024/01/09 06:57:07;;;;;;;1.00;0.82;;;19.70;40.70;;;;;;8330779;28;20039;-46
2024/01/09 07:01:08;;;;;;;0.82;0.80;;;19.70;40.60;;;;;;8330629;28;20029;-45
2024/01/09 07:05:09;;;;;;;1.02;0.95;;;19.70;40.60;;;;;;8330328;28;20483;-45
2024/01/09 07:09:10;;;;;;;1.02;0.85;;;19.70;40.70;;;;;;8329945;28;20106;-48
2024/01/09 07:13:10;;;;;;;0.75;0.70;;;19.50;41.80;;;;;;8313101;28;20515;-46
2024/01/09 07:17:11;;;;;;;0.70;0.70;;;19.40;42.40;;;;;;8330047;28;20395;-47
2024/01/09 07:21:12;;;;;;;1.25;1.00;;;19.50;41.90;;;;;;8329768;28;20030;-47
2024/01/09 07:25:14;;;;;;;0.85;0.85;;;19.50;41.40;;;;;;8329862;28;20687;-47
2024/01/09 07:29:17;;;;;;;0.88;0.80;;;19.60;41.10;;;;;;8330103;28;20079;-46
2024/01/09 07:33:18;;;;;;;0.70;0.70;;;19.60;40.90;;;;;;8312004;28;20037;-45
2024/01/09 07:37:19;;;;;;;1.13;1.02;;;19.70;40.80;;;;;;8329574;28;20036;-45
2024/01/09 07:41:20;;;;;;;0.85;0.85;;;19.70;40.70;;;;;;8329203;28;20041;-46
2024/01/09 07:45:20;;;;;;;0.90;0.90;;;19.60;40.50;;;;;;8329165;28;20498;-46
2024/01/09 07:49:21;;;;;;;1.08;0.90;;;19.70;40.50;;;;;;8328870;28;20415;-46
2024/01/09 07:53:22;;;;;;;0.70;0.70;;;19.70;40.40;;;;;;8328707;28;20037;-45
2024/01/09 07:57:24;;;;;;;1.67;0.98;;;19.60;40.50;;;;;;8328681;28;20372;-46
2024/01/09 08:01:25;;;;;;;0.95;0.93;;;19.50;41.70;;;;;;8328582;28;20033;-47
2024/01/09 08:05:25;;;;;;;1.10;1.00;;;19.40;42.20;;;;;;8328228;28;20116;-47
2024/01/09 08:09:26;;;;;;;0.90;0.80;;;19.50;41.60;;;;;;8328268;28;20060;-47
2024/01/09 08:13:27;;;;;;;1.05;0.95;;;19.60;41.30;;;;;;8328554;28;20036;-48
2024/01/09 08:17:27;;;;;;;1.25;1.15;;;19.60;41.00;;;;;;8328059;28;20395;-47
2024/01/09 08:21:28;;;;;;;0.80;0.68;;;19.60;40.80;;;;;;8328090;28;20120;-47
2024/01/09 08:25:29;;;;;;;1.23;0.98;;;19.60;40.70;;;;;;8327677;28;20026;-48
2024/01/09 08:29:29;;;;;;;0.98;0.90;;;19.70;40.60;;;;;;8327532;28;20057;-47
2024/01/09 08:33:34;;;;;;;0.80;0.80;;;19.70;40.50;;;;;;8327764;28;20055;-46
2024/01/09 08:37:34;;;;;;;0.85;0.85;;;19.60;40.30;;;;;;8327610;28;20042;-48
2024/01/09 08:41:35;;;;;;;1.30;0.80;;;19.60;40.30;;;;;;8327148;28;20080;-48
2024/01/09 08:45:36;;;;;;;0.95;0.90;;;19.70;40.60;;;;;;8327390;28;20037;-47
2024/01/09 08:49:37;;;;;;;0.98;0.88;;;19.50;41.60;;;;;;8327194;28;20037;-47
2024/01/09 08:53:38;;;;;;;0.88;0.70;;;19.40;42.50;;;;;;8327221;28;20065;-47
2024/01/09 08:57:39;;;;;;;1.10;1.00;;;19.50;41.50;;;;;;8325665;28;20045;-48
2024/01/09 09:01:40;;;;;;;1.13;0.93;;;19.60;41.20;;;;;;8326902;28;20482;-48
2024/01/09 09:05:40;;;;;;;0.80;0.80;;;19.60;40.90;;;;;;8326852;28;20070;-47
2024/01/09 09:09:41;;;;;;;0.80;0.80;;;19.60;40.70;;;;;;8326889;28;20139;-48
2024/01/09 09:13:42;;;;;;;1.90;1.02;;;19.60;40.50;;;;;;8326809;28;20313;-48
2024/01/09 09:17:43;;;;;;;0.80;0.73;;;19.60;40.40;;;;;;8330287;28;20037;-47
2024/01/09 09:21:44;;;;;;;1.25;0.82;;;19.70;40.40;;;;;;8333437;28;20030;-47
2024/01/09 09:25:44;;;;;;;0.95;0.80;;;19.70;40.30;;;;;;8334347;28;20026;-47
2024/01/09 09:29:45;;;;;;;1.55;0.93;;;19.70;40.30;;;;;;8333359;28;20030;-47
2024/01/09 09:33:45;;;;;;;1.30;1.00;;;19.60;40.50;;;;;;8333223;28;20041;-48
2024/01/09 09:37:46;;;;;;;1.25;1.13;;;19.50;41.70;;;;;;8332888;28;20087;-48
2024/01/09 09:41:53;;;;;;;1.17;0.90;;;19.40;41.90;;;;;;8332773;28;20588;-48
2024/01/09 09:45:56;;;;;;;1.00;0.80;;;19.50;41.50;;;;;;8332812;28;20497;-47
2024/01/09 09:49:57;;;;;;;1.17;0.80;;;19.50;41.00;;;;;;8332437;28;20738;-49
2024/01/09 09:54:00;;;;;;;0.90;0.90;;;19.60;40.80;;;;;;8331492;28;20438;-48
2024/01/09 09:58:01;;;;;;;1.15;1.00;;;19.60;40.60;;;;;;8332473;28;20065;-48
2024/01/09 10:02:06;;;;;;;0.80;0.80;;;19.70;40.50;;;;;;8332214;28;20033;-47
2024/01/09 10:06:09;;;;;;;1.08;1.00;;;19.70;40.30;;;;;;8332183;28;20487;-47
2024/01/09 10:10:12;;;;;;;1.08;0.98;;;19.70;40.20;;;;;;8331930;28;20574;-48
2024/01/09 10:14:13;;;;;;;1.00;0.90;;;19.70;40.20;;;;;;8332000;28;20083;-47
2024/01/09 10:18:13;;;;;;;1.00;0.88;;;19.70;40.00;;;;;;8332008;28;20041;-48
2024/01/09 10:22:15;;;;;;;0.80;0.80;;;19.60;40.70;;;;;;8331779;28;20449;-48
2024/01/09 10:26:16;;;;;;;1.33;1.02;;;19.40;41.60;;;;;;8331579;28;20033;-48
2024/01/09 10:30:16;;;;;;;0.80;0.80;;;19.40;41.70;;;;;;8330676;28;20037;-48
2024/01/09 10:34:17;;;;;;;1.13;0.82;;;19.50;41.30;;;;;;8331193;28;20040;-48
2024/01/09 10:38:27;;;;;;;1.45;1.25;;;19.50;40.90;;;;;;8331023;28;20056;-48
2024/01/09 10:42:30;;;;;;;1.35;1.08;;;19.60;40.60;;;;;;8331118;28;20108;-47
2024/01/09 10:46:33;;;;;;;0.88;0.88;;;19.60;40.40;;;;;;8331014;28;20434;-48
2024/01/09 10:50:34;;;;;;;1.38;0.95;;;19.60;40.30;;;;;;8331862;28;20026;-47
2024/01/09 10:54:35;;;;;;;1.20;1.10;;;19.70;40.20;;;;;;8329486;28;20040;-48
2024/01/09 10:58:36;;;;;;;0.80;0.80;;;19.70;40.10;;;;;;8330537;28;20034;-47
2024/01/09 11:02:38;;;;;;;0.80;0.80;;;19.60;40.00;;;;;;8330476;28;20537;-47
2024/01/09 11:06:42;;;;;;;0.90;0.90;;;19.60;40.00;;;;;;8330485;28;20034;-47
2024/01/09 11:10:44;;;;;;;1.30;1.20;;;19.60;40.80;;;;;;8330165;28;20414;-47
2024/01/09 11:14:49;;;;;;;1.00;0.80;;;19.30;41.70;;;;;;8330153;28;20395;-47
2024/01/09 11:18:50;;;;;;;0.80;0.80;;;19.30;41.50;;;;;;8329843;28;20418;-47
2024/01/09 11:22:51;;;;;;;1.00;0.90;;;19.50;41.60;;;;;;8329798;28;20068;-47
2024/01/09 11:27:10;;;;;;;1.10;1.00;;;19.50;40.80;;;;;;8330011;28;20494;-48
2024/01/09 11:31:20;;;;;;;0.88;0.80;;;19.60;40.60;;;;;;8329772;28;20435;-46
2024/01/09 11:35:21;;;;;;;0.73;0.73;;;19.60;40.40;;;;;;8329324;28;20037;-47
2024/01/09 11:39:21;;;;;;;1.00;0.95;;;19.60;40.20;;;;;;8329363;28;20108;-49
2024/01/09 11:43:22;;;;;;;0.70;0.70;;;19.60;40.10;;;;;;8329036;28;20030;-48
2024/01/09 11:47:23;;;;;;;1.35;1.23;;;19.70;40.00;;;;;;8328863;28;20095;-47
2024/01/09 11:51:24;;;;;;;1.35;0.88;;;19.70;39.80;;;;;;8329817;28;20383;-47
2024/01/09 11:55:26;;;;;;;1.40;1.00;;;19.70;39.80;;;;;;8328784;28;20038;-48
2024/01/09 11:59:30;;;;;;;1.05;0.95;;;19.60;40.80;;;;;;8328537;28;20483;-48
2024/01/09 12:03:32;;;;;;;1.10;0.80;;;19.40;41.60;;;;;;8328683;28;20076;-48
2024/01/09 12:07:34;;;;;;;0.95;0.90;;;19.40;41.20;;;;;;8328063;28;20691;-47
2024/01/09 12:11:36;;;;;;;1.20;0.95;;;19.50;40.80;;;;;;8328598;28;20156;-47
2024/01/09 12:15:36;;;;;;;1.00;0.90;;;19.60;40.50;;;;;;8328456;28;20104;-47
2024/01/09 12:19:40;;;;;;;1.00;0.90;;;19.60;40.40;;;;;;8328170;28;20479;-48
2024/01/09 12:23:41;;;;;;;1.23;0.98;;;19.60;40.20;;;;;;8326798;28;20033;-50
2024/01/09 12:27:42;;;;;;;1.30;1.02;;;19.60;40.10;;;;;;8327781;28;20087;-49
2024/01/09 12:31:43;;;;;;;1.35;1.25;;;19.70;40.60;;;;;;8327847;28;20037;-48
2024/01/09 12:35:48;;;;;;;1.20;0.90;;;19.70;39.90;;;;;;8327978;28;20078;-49
2024/01/09 12:39:58;;;;;;;1.13;0.98;;;19.70;39.80;;;;;;8327499;28;20037;-46
2024/01/09 12:44:11;;;;;;;0.93;0.90;;;19.60;39.80;;;;;;8327289;28;20038;-47
2024/01/09 12:48:12;;;;;;;1.00;0.90;;;19.50;41.00;;;;;;8327118;28;20029;-49
2024/01/09 12:52:13;;;;;;;1.38;0.90;;;19.30;41.60;;;;;;8326772;28;20038;-47
2024/01/09 12:56:14;;;;;;;1.15;0.90;;;19.40;41.10;;;;;;8327278;28;20037;-48
2024/01/09 13:00:15;;;;;;;;;;;19.50;40.70;;;;;;8327579;28;20575;-49
2024/01/09 13:04:16;;;;;;;1.53;1.17;;;19.50;40.40;;;;;;8327014;28;20007;-49
2024/01/09 13:08:16;;;;;;;1.10;1.00;;;19.50;40.20;;;;;;8326968;28;20054;-46
2024/01/09 13:12:17;;;;;;;1.10;1.00;;;19.60;40.10;;;;;;8326776;28;20068;-47
2024/01/09 13:16:18;;;;;;;1.17;0.88;;;19.70;40.50;;;;;;8327899;28;20434;-47
2024/01/09 13:20:18;;;;;;;1.20;1.10;;;19.60;39.80;;;;;;8327281;28;20034;-47
2024/01/09 13:24:19;;;;;;;1.00;0.90;;;19.70;39.80;;;;;;8326411;28;20502;-48
2024/01/09 13:28:20;;;;;;;2.30;0.98;;;19.70;39.80;;;;;;8326447;28;20033;-47
2024/01/09 13:32:20;;;;;;;1.50;1.17;;;19.60;39.80;;;;;;8326475;28;20037;-48
2024/01/09 13:36:21;;;;;;;1.27;1.10;;;19.50;41.00;;;;;;8326519;28;20069;-48
2024/01/09 13:40:23;;;;;;;1.05;0.90;;;19.30;41.40;;;;;;8326287;28;20073;-48
2024/01/09 13:44:23;;;;;;;;;;;19.40;41.00;;;;;;8326690;28;20130;-48
2024/01/09 13:48:24;;;;;;;1.27;0.90;;;19.50;40.60;;;;;;8326012;28;19948;-48
2024/01/09 13:52:25;;;;;;;0.82;0.82;;;19.60;40.30;;;;;;8326493;28;20101;-45
2024/01/09 13:56:27;;;;;;;1.20;1.10;;;19.60;40.20;;;;;;8326104;28;20348;-46
2024/01/09 14:00:27;;;;;;;1.08;0.90;;;19.60;40.00;;;;;;8326108;28;20061;-44
2024/01/09 14:04:28;;;;;;;1.55;1.02;;;19.60;39.90;;;;;;8327540;28;20072;-45
2024/01/09 14:08:31;;;;;;;1.20;1.10;;;19.70;39.80;;;;;;8331853;28;20049;-46
2024/01/09 14:12:34;;;;;;;1.15;1.05;;;19.70;39.80;;;;;;8331967;28;20030;-45
2024/01/09 14:16:35;;;;;;;1.63;1.20;;;19.60;39.70;;;;;;8332221;28;20286;-46
2024/01/09 14:20:36;;;;;;;1.02;0.90;;;19.60;40.00;;;;;;8331951;28;20527;-46
2024/01/09 14:24:36;;;;;;;1.40;1.00;;;19.40;41.00;;;;;;8331473;28;20376;-47
2024/01/09 14:28:37;;;;;;;1.13;1.02;;;19.30;41.40;;;;;;8331266;28;20052;-47
2024/01/09 14:32:39;;;;;;;1.23;1.00;;;19.40;40.90;;;;;;8331430;28;20467;-47
2024/01/09 14:36:41;;;;;;;1.10;1.00;;;19.50;40.50;;;;;;8331386;28;20486;-46
2024/01/09 14:40:41;;;;;;;1.15;1.05;;;19.60;40.20;;;;;;8331223;28;20476;-46
2024/01/09 14:44:42;;;;;;;0.88;0.88;;;19.60;40.10;;;;;;8330824;28;20391;-48
2024/01/09 14:48:43;;;;;;;1.45;1.30;;;19.60;39.90;;;;;;8331248;28;20061;-45
2024/01/09 14:52:43;;;;;;;1.35;1.10;;;19.60;39.80;;;;;;8329693;28;20037;-47
2024/01/09 14:56:44;;;;;;;1.20;1.10;;;19.60;39.70;;;;;;8331017;28;20495;-46
2024/01/09 15:00:46;;;;;;;1.40;1.15;;;19.70;39.70;;;;;;8330885;28;20254;-46
2024/01/09 15:04:47;;;;;;;1.13;1.02;;;19.60;39.60;;;;;;8329013;28;20098;-45
2024/01/09 15:08:48;;;;;;;0.90;0.90;;;19.60;40.00;;;;;;8328828;28;20057;-46
2024/01/09 15:12:50;;;;;;;0.98;0.90;;;19.40;41.00;;;;;;8330129;28;20033;-45
2024/01/09 15:16:50;;;;;;;1.05;1.00;;;19.30;41.30;;;;;;8329693;28;20108;-45
2024/01/09 15:20:51;;;;;;;0.85;0.85;;;19.40;40.80;;;;;;8329783;28;20044;-46
2024/01/09 15:24:52;;;;;;;1.10;0.98;;;19.50;40.40;;;;;;8329782;28;20033;-45
2024/01/09 15:28:52;;;;;;;1.13;1.00;;;19.60;40.20;;;;;;8329675;28;20044;-45
2024/01/09 15:32:53;;;;;;;1.30;1.20;;;19.60;40.00;;;;;;8329663;28;20067;-45
2024/01/09 15:36:54;;;;;;;1.25;1.00;;;19.60;39.80;;;;;;8328423;28;20037;-45
2024/01/09 15:40:55;;;;;;;1.13;0.93;;;19.60;39.70;;;;;;8328026;28;20033;-48
2024/01/09 15:44:55;;;;;;;0.98;0.85;;;19.60;39.60;;;;;;8329160;28;20040;-48
2024/01/09 15:48:56;;;;;;;0.90;0.90;;;19.60;39.60;;;;;;8329042;28;20042;-45
2024/01/09 15:52:57;;;;;;;2.03;1.20;;;19.70;39.60;;;;;;8328876;28;20033;-47
2024/01/09 15:56:58;;;;;;;1.45;1.17;;;19.60;40.00;;;;;;8328710;28;20033;-45
2024/01/09 16:00:58;;;;;;;1.15;0.90;;;19.40;41.10;;;;;;8328792;28;20083;-47
2024/01/09 16:04:59;;;;;;;1.40;1.00;;;19.30;41.20;;;;;;8328408;28;20039;-46
2024/01/09 16:08:59;;;;;;;0.80;0.80;;;19.40;40.70;;;;;;8328162;28;20057;-45
2024/01/09 16:13:00;;;;;;;1.17;0.85;;;19.50;40.40;;;;;;8328174;28;20048;-47
2024/01/09 16:17:01;;;;;;;1.00;0.90;;;19.50;40.10;;;;;;8328313;28;20038;-47
2024/01/09 16:21:02;;;;;;;1.30;1.10;;;19.60;40.00;;;;;;8328321;28;20107;-50
2024/01/09 16:25:08;;;;;;;1.35;1.00;;;19.60;39.80;;;;;;8327803;28;20042;-47
2024/01/09 16:29:09;;;;;;;1.17;1.02;;;19.60;39.80;;;;;;8327184;28;20036;-47
2024/01/09 16:33:10;;;;;;;1.42;1.13;;;19.60;39.60;;;;;;8328010;28;20065;-47
2024/01/09 16:37:10;;;;;;;1.27;1.10;;;19.60;39.50;;;;;;8327482;28;20040;-48
2024/01/09 16:41:11;;;;;;;1.27;1.10;;;19.70;39.50;;;;;;8327519;28;20040;-47
2024/01/09 16:45:12;;;;;;;1.55;1.02;;;19.60;40.10;;;;;;8327445;28;20441;-46
2024/01/09 16:49:13;;;;;;;0.98;0.93;;;19.30;41.10;;;;;;8327367;28;20459;-46
2024/01/09 16:53:13;;;;;;;0.82;0.82;;;19.30;41.10;;;;;;8325816;28;20033;-46
2024/01/09 16:57:14;;;;;;;1.10;1.00;;;19.40;40.60;;;;;;8326929;28;20045;-48
2024/01/09 17:01:22;;;;;;;2.60;1.38;;;19.50;40.30;;;;;;8322158;28;20065;-45
2024/01/09 17:05:23;;;;;;;1.83;1.20;;;19.50;40.10;;;;;;8302171;28;20026;-46
2024/01/09 17:09:26;;;;;;;2.03;0.93;;;19.60;39.90;;;;;;8300092;28;20045;-45
2024/01/09 17:13:27;;;;;;;2.95;1.20;;;19.60;39.70;;;;;;8326714;28;20087;-46
2024/01/09 17:17:28;;;;;;;1.25;0.93;;;19.60;39.60;;;;;;8326742;28;20047;-48
2024/01/09 17:21:29;;;;;;;1.15;1.05;;;19.60;39.50;;;;;;8326996;28;20029;-46
2024/01/09 17:25:30;;;;;;;1.33;1.20;;;19.70;39.50;;;;;;8326610;28;20041;-45
2024/01/09 17:29:31;;;;;;;1.90;1.30;;;19.70;39.40;;;;;;8326382;28;20147;-46
2024/01/09 17:33:32;;;;;;;1.88;1.15;;;19.50;40.10;;;;;;8326643;28;20029;-47
2024/01/09 17:37:32;;;;;;;1.23;1.13;;;19.40;41.10;;;;;;8327931;28;20042;-45
2024/01/09 17:41:34;;;;;;;2.90;1.58;;;19.40;40.90;;;;;;8333230;28;20029;-47
2024/01/09 17:45:35;;;;;;;2.53;1.73;;;19.50;40.50;;;;;;8331646;28;20283;-44
2024/01/09 17:49:36;;;;;;;2.83;1.33;;;19.50;40.20;;;;;;8314333;28;20037;-46
2024/01/09 17:53:37;;;;;;;1.85;1.65;;;19.60;40.00;;;;;;8331797;28;20037;-45
2024/01/09 17:57:37;;;;;;;2.47;1.60;;;19.60;39.80;;;;;;8332520;28;20033;-46
2024/01/09 18:01:43;;;;;;;2.92;1.83;;;19.60;39.80;;;;;;8328850;28;21897;-46
2024/01/09 18:05:48;;;;;;;3.63;1.60;;;19.60;39.70;;;;;;8311712;28;20049;-45
2024/01/09 18:09:48;;;;;;;3.47;1.77;;;19.70;39.60;;;;;;8298997;28;20119;-47
2024/01/09 18:13:52;;;;;;;2.22;1.55;;;19.60;39.50;;;;;;8299535;28;20030;-45
2024/01/09 18:17:53;;;;;;;2.90;1.92;;;19.70;39.60;;;;;;8307799;28;20022;-47
2024/01/09 18:21:56;;;;;;;5.07;2.20;;;19.60;40.50;;;;;;8332435;28;20042;-45
2024/01/09 18:25:56;;;;;;;;;;;19.40;41.40;;;;;;8332243;28;20506;-46
2024/01/09 18:29:57;;;;;;;4.67;2.47;;;19.40;41.00;;;;;;8331937;28;19913;-47
2024/01/09 18:33:59;;;;;;;4.90;2.40;;;19.50;40.70;;;;;;8331088;28;20283;-45
2024/01/09 18:38:00;;;;;;;7.43;2.97;;;19.60;40.40;;;;;;8313431;28;20041;-47
2024/01/09 18:42:03;;;;;;;6.90;3.50;;;19.60;40.10;;;;;;8298462;28;20103;-45
2024/01/09 18:46:04;;;;;;;10.55;3.80;;;19.60;40.00;;;;;;8297489;28;20037;-46
2024/01/09 18:50:08;;;;;;;12.95;3.88;;;19.70;40.40;;;;;;8327864;28;20033;-45
2024/01/09 18:54:11;;;;;;;7.90;4.00;;;19.70;40.50;;;;;;8330901;28;20048;-46
2024/01/09 18:58:12;;;;;;;9.05;4.07;;;19.70;40.40;;;;;;8330794;28;20033;-45
2024/01/09 19:02:12;;;;;;;9.68;4.60;;;19.70;40.30;;;;;;8316404;28;20041;-46
2024/01/09 19:06:15;;;;;;;8.18;3.92;;;19.80;40.60;;;;;;8330145;28;20057;-45
2024/01/09 19:10:16;;;;;;;9.50;4.07;;;19.60;41.60;;;;;;8329829;28;20052;-45
2024/01/09 19:14:17;;;;;;;7.40;3.63;;;19.50;42.30;;;;;;8323309;28;20136;-45
2024/01/09 19:18:18;;;;;;;9.13;4.53;;;19.60;42.20;;;;;;8308565;28;20606;-45
2024/01/09 19:22:19;;;;;;;9.20;4.40;;;19.70;42.30;;;;;;8329998;28;20084;-47
2024/01/09 19:26:19;;;;;;;28.45;10.80;;;19.80;41.90;;;;;;8325592;28;20083;-45
2024/01/09 19:30:21;;;;;;;15.60;6.63;;;19.80;41.70;;;;;;8311594;28;20041;-46
2024/01/09 19:34:22;;;;;;;39.72;12.25;;;19.90;41.60;;;;;;8329407;28;20499;-45
2024/01/09 19:38:23;;;;;;;36.00;10.93;;;19.90;41.60;;;;;;8326861;28;20387;-47
2024/01/09 19:42:23;;;;;;;31.02;9.70;;;19.90;41.80;;;;;;8311641;28;20555;-45
2024/01/09 19:46:24;;;;;;;20.77;8.13;;;19.90;41.70;;;;;;8313817;28;20034;-45
2024/01/09 19:50:25;;;;;;;25.70;11.20;;;19.90;41.50;;;;;;8296098;28;20066;-45
2024/01/09 19:54:25;;;;;;;28.00;10.05;;;19.90;41.80;;;;;;8301009;28;20108;-46
2024/01/09 19:58:26;;;;;;;26.00;10.20;;;19.80;43.10;;;;;;8328545;28;20041;-46
2024/01/09 20:02:27;;;;;;;32.03;11.75;;;19.80;43.70;;;;;;8321327;28;20049;-46
2024/01/09 20:06:28;;;;;;;24.13;9.30;;;19.90;43.60;;;;;;8306551;28;20038;-47
2024/01/09 20:10:29;;;;;;;24.92;9.27;;;20.00;43.20;;;;;;8302533;28;20064;-46
2024/01/09 20:14:31;;;;;;;24.60;8.35;;;20.10;42.90;;;;;;8320379;28;20037;-48
2024/01/09 20:18:32;;;;;;;22.35;8.90;;;20.10;42.70;;;;;;8300609;28;20038;-45
2024/01/09 20:22:33;;;;;;;41.80;14.30;;;20.10;42.40;;;;;;8294886;28;20030;-47
2024/01/09 20:26:35;;;;;;;30.05;9.85;;;20.10;42.50;;;;;;8301284;28;20487;-47
2024/01/09 20:30:35;;;;;;;24.60;8.80;;;20.20;42.60;;;;;;8315425;28;20500;-46
2024/01/09 20:34:36;;;;;;;31.80;10.57;;;20.10;42.60;;;;;;8298135;28;20107;-47
2024/01/09 20:38:37;;;;;;;26.65;9.60;;;20.10;42.70;;;;;;8325912;28;20050;-47
2024/01/09 20:42:38;;;;;;;;;;;20.20;42.80;;;;;;8324151;28;20085;-46
2024/01/09 20:46:40;;;;;;;22.53;10.20;;;20.00;44.20;;;;;;8300637;28;19971;-48
2024/01/09 20:50:41;;;;;;;24.50;9.40;;;20.00;44.70;;;;;;8299161;28;20022;-47
2024/01/09 20:54:42;;;;;;;24.92;9.60;;;20.10;44.50;;;;;;8307396;28;20113;-49
2024/01/09 20:58:43;;;;;;;26.55;10.23;;;20.10;44.10;;;;;;8294644;28;20041;-48